Time;durP1;ratioP1;P1;durP2;ratioP2;P2;SDS_P1;SDS_P2;PMS_P1;PMS_P2;Temp;Humidity;BMP_temperature;BMP_pressure;BME280_temperature;BME280_humidity;BME280_pressure;Samples;Min_cycle;Max_cycle;Signal;HPM_P1;HPM_P2
2022/07/05 00:01:19;;;;;;;3.57;2.33;;;;;;;18.82;73.68;96538.81;5033499;28;20516;-72
2022/07/05 00:03:46;;;;;;;3.23;2.70;;;;;;;18.67;74.97;96539.88;5049855;28;20491;-71
2022/07/05 00:06:13;;;;;;;2.83;2.00;;;;;;;18.62;73.51;96532.16;5049798;28;20465;-72
2022/07/05 00:08:40;;;;;;;3.40;2.07;;;;;;;18.69;73.68;96544.84;5033466;28;20461;-72
2022/07/05 00:11:07;;;;;;;11.67;2.27;;;;;;;18.46;73.30;96529.00;5033059;28;20468;-72
2022/07/05 00:13:33;;;;;;;2.97;2.77;;;;;;;18.50;72.58;96522.53;5034316;28;20488;-72
2022/07/05 00:16:00;;;;;;;2.30;2.10;;;;;;;18.45;72.38;96519.44;5062845;28;20466;-71
2022/07/05 00:18:27;;;;;;;3.30;2.00;;;;;;;18.46;71.48;96507.59;5016634;28;20921;-71
2022/07/05 00:20:54;;;;;;;2.57;2.33;;;;;;;18.81;70.59;96537.28;5050914;28;20512;-72
2022/07/05 00:23:20;;;;;;;2.43;2.20;;;;;;;18.79;70.19;96546.84;5033141;28;20512;-72
2022/07/05 00:25:47;;;;;;;3.73;2.50;;;;;;;18.61;69.87;96523.38;5051053;28;20905;-72
2022/07/05 00:28:15;;;;;;;3.43;2.80;;;;;;;18.70;69.08;96516.94;5032594;28;20917;-72
2022/07/05 00:30:42;;;;;;;4.43;1.90;;;;;;;18.80;68.72;96517.00;5033000;28;20437;-72
2022/07/05 00:33:09;;;;;;;3.87;1.90;;;;;;;18.74;69.02;96539.94;5050690;28;20426;-72
2022/07/05 00:35:36;;;;;;;2.10;1.70;;;;;;;18.67;68.32;96542.56;5033763;28;20925;-72
2022/07/05 00:38:02;;;;;;;3.60;2.53;;;;;;;18.45;68.74;96540.84;5050892;28;20888;-72
2022/07/05 00:40:29;;;;;;;2.50;2.30;;;;;;;18.38;68.42;96506.00;5033674;28;20433;-72
2022/07/05 00:42:56;;;;;;;4.40;2.30;;;;;;;18.50;67.56;96527.88;5020193;28;20469;-72
2022/07/05 00:45:32;;;;;;;2.30;2.10;;;;;;;18.55;67.52;96540.91;5053269;28;20432;-72
2022/07/05 00:47:58;;;;;;;3.30;2.10;;;;;;;18.66;67.23;96541.00;5036699;28;20556;-72
2022/07/05 00:50:45;;;;;;;2.17;2.07;;;;;;;18.70;66.54;96549.09;5036656;28;20437;-72
2022/07/05 00:53:13;;;;;;;1.80;1.70;;;;;;;18.76;66.71;96548.34;5054864;28;20939;-72
2022/07/05 00:55:40;;;;;;;3.00;1.90;;;;;;;18.33;66.95;96506.34;5032955;28;20470;-72
2022/07/05 00:58:06;;;;;;;3.40;1.70;;;;;;;18.10;67.25;96518.00;5020117;28;20485;-72
2022/07/05 01:00:33;;;;;;;1.60;1.50;;;;;;;18.36;67.89;96540.41;5035003;28;20474;-72
2022/07/05 01:03:00;;;;;;;2.33;1.67;;;;;;;18.07;68.98;96537.50;5036534;28;20980;-72
2022/07/05 01:05:28;;;;;;;2.70;1.70;;;;;;;18.20;69.87;96538.75;5054500;28;20425;-72
2022/07/05 01:07:56;;;;;;;1.83;1.73;;;;;;;18.25;70.85;96535.72;5020122;28;20463;-72
2022/07/05 01:10:23;;;;;;;2.13;2.03;;;;;;;17.91;70.71;96532.41;5055382;28;20429;-72
2022/07/05 01:12:50;;;;;;;7.03;2.30;;;;;;;18.06;71.85;96530.59;5037999;28;20829;-72
2022/07/05 01:15:19;;;;;;;2.13;1.47;;;;;;;18.00;73.00;96535.50;5037739;28;20433;-72
2022/07/05 01:17:46;;;;;;;2.17;2.03;;;;;;;17.54;72.01;96515.56;5056193;28;20512;-72
2022/07/05 01:20:13;;;;;;;2.53;2.20;;;;;;;17.67;72.04;96532.88;5036817;28;20524;-71
2022/07/05 01:22:54;;;;;;;2.33;1.87;;;;;;;17.48;72.38;96535.72;5032944;28;21008;-72
2022/07/05 01:25:23;;;;;;;1.83;1.60;;;;;;;17.59;72.41;96534.72;5068534;28;20952;-72
2022/07/05 01:27:51;;;;;;;3.00;1.73;;;;;;;17.34;72.22;96518.38;5035985;28;20559;-72
2022/07/05 01:30:18;;;;;;;5.17;2.43;;;;;;;17.38;72.49;96537.16;5036123;28;20531;-69
2022/07/05 01:32:45;;;;;;;1.70;1.60;;;;;;;17.20;72.35;96496.09;5053973;28;20429;-69
2022/07/05 01:35:14;;;;;;;2.93;2.63;;;;;;;17.46;72.53;96538.75;5069255;28;20437;-69
2022/07/05 01:37:40;;;;;;;3.27;2.47;;;;;;;17.17;73.11;96508.28;5035846;28;20497;-69
2022/07/05 01:40:08;;;;;;;5.50;2.07;;;;;;;17.04;74.33;96526.44;5012749;28;20467;-69
2022/07/05 01:42:34;;;;;;;2.90;2.70;;;;;;;17.08;74.29;96548.63;5038874;28;20527;-69
2022/07/05 01:45:01;;;;;;;2.23;2.03;;;;;;;17.00;74.90;96520.28;5053455;28;20520;-69
2022/07/05 01:47:28;;;;;;;3.27;2.30;;;;;;;17.04;76.29;96537.13;5035475;28;20480;-69
2022/07/05 01:49:59;;;;;;;6.40;1.70;;;;;;;16.70;77.05;96530.19;5019256;28;20460;-69
2022/07/05 01:52:28;;;;;;;3.10;2.50;;;;;;;16.58;77.04;96507.13;5051546;28;20436;-69
2022/07/05 01:54:54;;;;;;;6.13;2.50;;;;;;;16.43;77.46;96490.13;5019068;28;20442;-69
2022/07/05 01:57:21;;;;;;;2.23;2.00;;;;;;;16.76;77.96;96542.09;5054764;28;20441;-69
2022/07/05 01:59:48;;;;;;;5.07;2.30;;;;;;;16.62;78.35;96537.31;5065283;28;20548;-69
2022/07/05 02:02:35;;;;;;;1.90;1.80;;;;;;;16.63;78.47;96536.16;5016917;28;20450;-69
2022/07/05 02:05:11;;;;;;;3.97;2.07;;;;;;;16.46;79.96;96539.34;5036755;28;20441;-69
2022/07/05 02:07:47;;;;;;;1.67;1.57;;;;;;;16.41;79.91;96545.75;5019730;28;20457;-70
2022/07/05 02:10:14;;;;;;;2.17;1.97;;;;;;;16.10;80.61;96504.09;5035284;28;20499;-70
2022/07/05 02:12:41;;;;;;;3.10;2.10;;;;;;;16.36;81.09;96540.72;5035147;28;20434;-70
2022/07/05 02:15:09;;;;;;;4.03;2.00;;;;;;;16.32;81.09;96552.47;5035136;28;20438;-70
2022/07/05 02:17:37;;;;;;;3.27;2.37;;;;;;;16.21;81.38;96546.97;5034993;28;20964;-70
2022/07/05 02:20:05;;;;;;;2.97;2.10;;;;;;;16.23;82.16;96550.81;5034796;28;20430;-71
2022/07/05 02:22:33;;;;;;;4.57;2.30;;;;;;;16.16;82.27;96552.59;5035144;28;20450;-70
2022/07/05 02:25:00;;;;;;;2.10;2.00;;;;;;;16.11;81.88;96528.88;5034790;28;20511;-70
2022/07/05 02:27:27;;;;;;;1.90;1.80;;;;;;;15.96;82.43;96528.66;5059688;28;20890;-70
2022/07/05 02:29:54;;;;;;;2.23;2.10;;;;;;;15.85;82.91;96519.69;5039430;28;21010;-70
2022/07/05 02:32:31;;;;;;;3.43;2.10;;;;;;;16.04;83.42;96556.22;5051261;28;20536;-70
2022/07/05 02:34:59;;;;;;;1.80;1.67;;;;;;;15.90;83.08;96530.09;5034863;28;20564;-70
2022/07/05 02:37:27;;;;;;;2.17;1.80;;;;;;;16.23;82.57;96564.16;5010234;28;20459;-70
2022/07/05 02:39:54;;;;;;;2.30;2.07;;;;;;;16.13;82.67;96564.75;5050847;28;20433;-70
2022/07/05 02:42:21;;;;;;;3.93;2.57;;;;;;;15.93;83.90;96576.59;5034364;28;21043;-70
2022/07/05 02:44:48;;;;;;;2.90;2.13;;;;;;;15.70;85.29;96541.91;5034394;28;20527;-70
2022/07/05 02:47:17;;;;;;;2.70;2.50;;;;;;;16.11;84.43;96577.69;5030878;28;20557;-70
2022/07/05 02:49:44;;;;;;;2.17;1.97;;;;;;;15.96;84.19;96555.31;5033135;28;20501;-70
2022/07/05 02:52:11;;;;;;;2.97;2.20;;;;;;;15.83;85.43;96574.50;5034205;28;20449;-70
2022/07/05 02:54:39;;;;;;;5.33;2.07;;;;;;;15.83;86.75;96553.19;5052143;28;20430;-70
2022/07/05 02:57:07;;;;;;;2.50;2.30;;;;;;;15.94;86.88;96586.16;5067369;28;20457;-70
2022/07/05 02:59:34;;;;;;;2.17;2.00;;;;;;;15.96;86.95;96575.88;5034499;28;20437;-71
2022/07/05 03:02:01;;;;;;;2.47;2.23;;;;;;;15.98;86.65;96586.97;5030723;28;20442;-71
2022/07/05 03:04:28;;;;;;;2.20;2.10;;;;;;;15.64;87.20;96546.00;5033166;28;20449;-71
2022/07/05 03:06:57;;;;;;;2.63;2.10;;;;;;;15.90;87.82;96564.00;5034254;28;20461;-71
2022/07/05 03:09:27;;;;;;;3.97;2.00;;;;;;;16.00;88.24;96566.03;5035207;28;20909;-72
2022/07/05 03:11:56;;;;;;;1.97;1.77;;;;;;;16.05;87.62;96560.44;5037238;28;20818;-69
2022/07/05 03:14:24;;;;;;;2.33;2.20;;;;;;;16.18;88.70;96593.03;5033772;28;20852;-71
2022/07/05 03:16:51;;;;;;;2.10;1.90;;;;;;;15.95;88.77;96567.13;5066881;28;20513;-70
2022/07/05 03:19:20;;;;;;;5.83;2.40;;;;;;;16.29;87.47;96587.88;5034094;28;20445;-70
2022/07/05 03:21:47;;;;;;;2.33;2.13;;;;;;;16.25;88.57;96579.81;5033554;28;20504;-70
2022/07/05 03:24:14;;;;;;;5.70;2.30;;;;;;;16.16;92.37;96590.75;5033486;28;20867;-70
2022/07/05 03:26:40;;;;;;;4.57;2.60;;;;;;;16.19;92.06;96594.59;5033925;28;20507;-72
2022/07/05 03:29:08;;;;;;;4.50;2.00;;;;;;;16.11;91.94;96577.69;5034948;28;20441;-71
2022/07/05 03:31:38;;;;;;;2.23;1.90;;;;;;;16.25;91.57;96599.25;5033649;28;20974;-71
2022/07/05 03:34:14;;;;;;;2.87;2.30;;;;;;;16.12;90.89;96587.22;5035419;28;20459;-71
2022/07/05 03:36:42;;;;;;;3.60;2.33;;;;;;;16.29;90.19;96609.97;5033145;28;20465;-70
2022/07/05 03:39:12;;;;;;;3.97;2.40;;;;;;;16.12;90.98;96603.22;5033447;28;20482;-71
2022/07/05 03:41:40;;;;;;;2.50;2.30;;;;;;;16.22;89.74;96617.88;5050311;28;20499;-71
2022/07/05 03:44:09;;;;;;;2.53;2.37;;;;;;;16.22;90.42;96612.53;5049973;28;20473;-70
2022/07/05 03:46:35;;;;;;;3.63;2.37;;;;;;;16.18;92.15;96611.72;5047787;28;20465;-70
2022/07/05 03:49:02;;;;;;;3.90;2.13;;;;;;;16.05;92.41;96623.69;5033459;28;20488;-70
2022/07/05 03:51:29;;;;;;;2.10;2.00;;;;;;;16.11;92.97;96633.69;5049718;28;20443;-70
2022/07/05 03:53:57;;;;;;;2.50;2.30;;;;;;;16.01;93.91;96623.59;5066395;28;20430;-71
2022/07/05 03:56:25;;;;;;;3.20;2.90;;;;;;;16.24;93.24;96629.72;5033438;28;20489;-71
2022/07/05 03:58:57;;;;;;;4.23;3.07;;;;;;;16.04;93.11;96606.13;5034136;28;20944;-71
2022/07/05 04:01:25;;;;;;;2.77;2.20;;;;;;;16.30;92.92;96635.56;5016742;28;20524;-70
2022/07/05 04:03:53;;;;;;;2.50;2.30;;;;;;;15.94;93.52;96621.59;5050802;28;20568;-70
2022/07/05 04:06:20;;;;;;;3.30;2.47;;;;;;;16.25;94.10;96638.50;5044406;28;21004;-70
2022/07/05 04:08:48;;;;;;;3.60;2.20;;;;;;;16.01;94.09;96614.81;5033029;28;20464;-70
2022/07/05 04:11:15;;;;;;;2.20;2.10;;;;;;;15.98;93.69;96634.97;5016665;28;20433;-70
2022/07/05 04:13:46;;;;;;;3.50;2.20;;;;;;;16.07;92.34;96621.44;5049497;28;20429;-70
2022/07/05 04:16:12;;;;;;;3.40;2.53;;;;;;;16.11;92.00;96627.59;5032940;28;20551;-70
2022/07/05 04:18:39;;;;;;;4.87;2.17;;;;;;;16.40;93.66;96647.53;5016598;28;20996;-70
2022/07/05 04:21:06;;;;;;;2.43;2.20;;;;;;;16.50;90.74;96644.28;5050838;28;20429;-70
2022/07/05 04:23:34;;;;;;;4.83;2.00;;;;;;;16.36;91.87;96631.47;5032558;28;20504;-70
2022/07/05 04:26:02;;;;;;;2.43;1.90;;;;;;;16.11;90.40;96646.25;5032631;28;20503;-70
2022/07/05 04:28:39;;;;;;;2.53;2.33;;;;;;;15.97;90.25;96617.44;5032748;28;20547;-70
2022/07/05 04:31:08;;;;;;;2.33;2.13;;;;;;;16.33;89.97;96648.19;5033166;28;20452;-70
2022/07/05 04:33:40;;;;;;;4.50;2.27;;;;;;;16.18;91.12;96652.50;5032629;28;20440;-70
2022/07/05 04:36:07;;;;;;;2.40;2.17;;;;;;;16.09;90.43;96622.63;5016647;28;20479;-70
2022/07/05 04:38:34;;;;;;;4.10;2.10;;;;;;;16.15;91.10;96647.09;5049136;28;20529;-70
2022/07/05 04:41:02;;;;;;;2.80;2.03;;;;;;;16.12;91.30;96647.81;5032573;28;20936;-70
2022/07/05 04:43:33;;;;;;;3.10;2.47;;;;;;;16.02;92.54;96619.81;5032596;28;20564;-70
2022/07/05 04:46:02;;;;;;;2.20;2.00;;;;;;;15.99;92.70;96622.41;5048939;28;20823;-70
2022/07/05 04:48:29;;;;;;;3.70;3.30;;;;;;;15.95;92.87;96649.03;5032737;28;20453;-70
2022/07/05 04:50:56;;;;;;;2.10;1.90;;;;;;;15.98;92.01;96658.97;5032555;28;20437;-70
2022/07/05 04:53:24;;;;;;;5.20;2.60;;;;;;;15.76;91.23;96601.84;5032627;28;20467;-70
2022/07/05 04:55:50;;;;;;;2.77;2.57;;;;;;;16.09;92.13;96662.63;5016238;28;20437;-70
2022/07/05 04:58:17;;;;;;;2.67;2.00;;;;;;;15.66;92.88;96618.38;5032509;28;20503;-70
2022/07/05 05:00:44;;;;;;;3.53;2.73;;;;;;;15.98;91.34;96639.53;5048927;28;20483;-69
2022/07/05 05:03:10;;;;;;;2.47;2.33;;;;;;;16.57;90.57;96673.00;5050255;28;20519;-70
2022/07/05 05:05:37;;;;;;;2.83;2.63;;;;;;;16.68;90.23;96665.94;5032405;28;20838;-70
2022/07/05 05:08:04;;;;;;;3.20;2.60;;;;;;;16.42;89.23;96642.59;5032474;28;20453;-70
2022/07/05 05:10:31;;;;;;;2.83;2.30;;;;;;;16.31;89.70;96636.34;5049267;28;20519;-69
2022/07/05 05:12:58;;;;;;;2.30;2.20;;;;;;;16.46;90.70;96667.47;5032707;28;20511;-70
2022/07/05 05:15:24;;;;;;;3.57;2.27;;;;;;;16.64;90.29;96665.88;5050370;28;20434;-70
2022/07/05 05:17:52;;;;;;;2.63;2.43;;;;;;;16.70;88.97;96672.50;5032324;28;20457;-70
2022/07/05 05:20:19;;;;;;;2.60;2.20;;;;;;;16.81;88.62;96670.75;5032345;28;20441;-70
2022/07/05 05:22:46;;;;;;;4.00;2.20;;;;;;;16.99;87.94;96671.03;5050257;28;20429;-71
2022/07/05 05:25:13;;;;;;;4.40;2.47;;;;;;;17.07;85.81;96655.84;5032666;28;20856;-70
2022/07/05 05:27:45;;;;;;;2.70;2.50;;;;;;;17.14;86.63;96675.44;5034891;28;20548;-70
2022/07/05 05:30:16;;;;;;;4.30;2.20;;;;;;;17.27;86.82;96673.34;5019712;28;20500;-70
2022/07/05 05:32:42;;;;;;;3.03;2.37;;;;;;;17.20;87.57;96648.41;5016133;28;20442;-71
2022/07/05 05:35:09;;;;;;;2.43;2.10;;;;;;;16.94;88.22;96665.22;5019292;28;20483;-71
2022/07/05 05:37:50;;;;;;;2.67;2.13;;;;;;;17.25;88.55;96683.63;5035709;28;20457;-70
2022/07/05 05:40:18;;;;;;;3.80;2.70;;;;;;;17.34;85.36;96676.09;5056840;28;20433;-70
2022/07/05 05:42:45;;;;;;;5.33;2.50;;;;;;;17.57;86.49;96675.25;5035583;28;20524;-70
2022/07/05 05:45:12;;;;;;;2.47;2.00;;;;;;;17.22;84.55;96638.88;5032168;28;20443;-70
2022/07/05 05:47:47;;;;;;;2.73;2.50;;;;;;;17.74;84.67;96685.44;5047026;28;21018;-70
2022/07/05 05:50:21;;;;;;;4.47;2.00;;;;;;;17.76;84.33;96693.84;5068836;28;20444;-70
2022/07/05 05:52:48;;;;;;;4.10;2.50;;;;;;;17.58;86.47;96668.78;5053260;28;20436;-70
2022/07/05 05:55:15;;;;;;;5.33;2.00;;;;;;;17.85;84.03;96697.03;5035569;28;20471;-71
2022/07/05 05:57:42;;;;;;;3.00;1.90;;;;;;;17.61;83.41;96665.38;5035775;28;20453;-71
2022/07/05 06:00:10;;;;;;;6.17;2.37;;;;;;;17.92;84.59;96705.16;5035527;28;20469;-70
2022/07/05 06:02:40;;;;;;;2.30;2.10;;;;;;;17.61;83.95;96681.41;5035262;28;20480;-71
2022/07/05 06:05:08;;;;;;;2.43;1.90;;;;;;;17.85;83.13;96674.88;5035253;28;20537;-70
2022/07/05 06:07:53;;;;;;;3.67;2.70;;;;;;;17.91;83.97;96684.13;5035147;28;20460;-70
2022/07/05 06:10:23;;;;;;;3.73;2.03;;;;;;;18.44;80.32;96708.78;5018731;28;20437;-70
2022/07/05 06:12:52;;;;;;;2.37;2.17;;;;;;;18.88;77.99;96708.81;5035171;28;20488;-70
2022/07/05 06:15:19;;;;;;;3.67;1.87;;;;;;;18.83;74.88;96711.06;5052909;28;20493;-70
2022/07/05 06:17:46;;;;;;;2.03;1.60;;;;;;;18.87;75.53;96709.19;5034983;28;20484;-70
2022/07/05 06:20:18;;;;;;;1.93;1.80;;;;;;;19.44;73.06;96723.00;5035125;28;20464;-71
2022/07/05 06:22:45;;;;;;;2.20;1.77;;;;;;;19.46;73.20;96718.03;5035029;28;20476;-71
2022/07/05 06:25:13;;;;;;;2.97;2.67;;;;;;;20.17;71.27;96714.97;5034953;28;20476;-71
2022/07/05 06:27:52;;;;;;;2.63;2.40;;;;;;;20.32;69.35;96720.00;5052874;28;20806;-71
2022/07/05 06:30:20;;;;;;;3.10;2.57;;;;;;;20.61;68.20;96714.72;5051681;28;20968;-71
2022/07/05 06:32:48;;;;;;;4.47;2.93;;;;;;;20.00;69.41;96711.03;5051554;28;20461;-72
2022/07/05 06:35:15;;;;;;;4.10;1.97;;;;;;;20.17;68.10;96680.06;5052768;28;20852;-71
2022/07/05 06:37:51;;;;;;;2.30;2.10;;;;;;;20.66;67.34;96715.09;5034814;28;20449;-71
2022/07/05 06:40:21;;;;;;;2.83;1.90;;;;;;;21.02;67.60;96717.81;5040767;28;20425;-71
2022/07/05 06:42:48;;;;;;;2.70;2.27;;;;;;;21.04;65.56;96718.19;5034680;28;20441;-71
2022/07/05 06:45:16;;;;;;;3.13;2.80;;;;;;;21.14;65.57;96727.41;5034289;28;20467;-71
2022/07/05 06:47:43;;;;;;;2.37;2.23;;;;;;;21.77;63.92;96720.41;5034195;28;20986;-71
2022/07/05 06:50:10;;;;;;;6.53;1.90;;;;;;;21.49;64.13;96703.16;5034308;28;20859;-71
2022/07/05 06:52:37;;;;;;;2.37;1.90;;;;;;;22.17;63.47;96716.44;5051076;28;20528;-71
2022/07/05 06:55:04;;;;;;;5.10;2.00;;;;;;;21.01;64.38;96715.50;5033357;28;20481;-71
2022/07/05 06:57:31;;;;;;;2.40;2.30;;;;;;;21.04;65.60;96691.28;5034092;28;20850;-71
2022/07/05 06:59:58;;;;;;;2.73;2.53;;;;;;;21.21;64.59;96714.72;5034375;28;20442;-71
2022/07/05 07:02:26;;;;;;;2.27;2.17;;;;;;;20.72;64.98;96671.72;5052103;28;20426;-71
2022/07/05 07:04:53;;;;;;;2.90;2.40;;;;;;;20.28;67.65;96692.34;5052027;28;20511;-71
2022/07/05 07:10:23;;;;;;;7.37;2.23;;;;;;;20.70;67.31;96717.00;5034021;28;20450;-71
2022/07/05 07:12:56;;;;;;;8.33;2.43;;;;;;;20.99;66.93;96723.19;5034074;28;20441;-71
2022/07/05 07:15:24;;;;;;;2.13;2.03;;;;;;;20.86;67.27;96720.09;5033986;28;20495;-71
2022/07/05 07:17:51;;;;;;;3.30;2.60;;;;;;;21.50;66.24;96728.13;5033825;28;20894;-71
2022/07/05 07:20:17;;;;;;;2.57;2.37;;;;;;;21.59;66.25;96727.75;5033826;28;20437;-72
2022/07/05 07:22:44;;;;;;;3.73;2.33;;;;;;;21.38;65.61;96731.25;5067011;28;20507;-72
2022/07/05 07:25:13;;;;;;;2.83;2.63;;;;;;;21.32;64.83;96703.97;5033558;28;20493;-72
2022/07/05 07:27:45;;;;;;;3.63;2.97;;;;;;;21.49;64.89;96734.69;5033855;28;20469;-72
2022/07/05 07:30:13;;;;;;;2.90;2.43;;;;;;;21.14;66.57;96730.84;5050352;28;20483;-72
2022/07/05 07:32:41;;;;;;;3.07;2.70;;;;;;;21.28;64.92;96718.59;5033767;28;20465;-72
2022/07/05 07:35:09;;;;;;;3.17;2.97;;;;;;;22.13;63.03;96750.69;5050227;28;20434;-72
2022/07/05 07:37:36;;;;;;;3.53;2.70;;;;;;;22.78;60.87;96737.63;5050441;28;20508;-72
2022/07/05 07:40:04;;;;;;;3.67;2.70;;;;;;;23.29;59.68;96740.34;5013915;28;20989;-72
2022/07/05 07:42:31;;;;;;;2.63;2.43;;;;;;;23.56;59.56;96734.31;5044754;28;20843;-72
2022/07/05 07:44:57;;;;;;;3.07;2.87;;;;;;;23.72;59.20;96744.59;5033420;28;20556;-72
2022/07/05 07:47:24;;;;;;;3.10;2.53;;;;;;;23.29;59.13;96709.91;5033289;28;20512;-71
2022/07/05 07:49:51;;;;;;;3.00;2.80;;;;;;;23.10;59.14;96723.94;5019751;28;20452;-71
2022/07/05 07:52:17;;;;;;;2.70;2.50;;;;;;;22.98;59.19;96727.91;5033462;28;20429;-71
2022/07/05 07:54:44;;;;;;;2.63;2.43;;;;;;;23.74;58.50;96744.94;5033489;28;21225;-72
2022/07/05 07:57:11;;;;;;;2.60;2.40;;;;;;;23.08;58.27;96731.66;5033495;28;20472;-72
2022/07/05 07:59:38;;;;;;;4.37;2.60;;;;;;;23.56;58.05;96734.31;5033482;28;20499;-71
2022/07/05 08:02:05;;;;;;;3.53;2.50;;;;;;;24.22;56.09;96719.69;5033580;28;20536;-71
2022/07/05 08:04:31;;;;;;;6.97;3.00;;;;;;;24.92;55.67;96741.53;5033288;28;20457;-72
2022/07/05 08:06:58;;;;;;;2.70;2.40;;;;;;;24.95;54.23;96741.47;5033495;28;20460;-72
2022/07/05 08:09:25;;;;;;;2.80;2.57;;;;;;;25.02;53.81;96735.22;5051240;28;20439;-72
2022/07/05 08:11:51;;;;;;;3.77;2.40;;;;;;;25.14;53.19;96740.06;5033229;28;20516;-72
2022/07/05 08:14:18;;;;;;;3.30;2.30;;;;;;;25.12;52.93;96720.00;5033190;28;20882;-73
2022/07/05 08:16:47;;;;;;;2.53;2.33;;;;;;;25.89;52.18;96741.44;5033348;28;20253;-72
2022/07/05 08:22:07;;;;;;;2.67;2.30;;;;;;;25.84;50.21;96739.25;5033157;28;20941;-72
2022/07/05 08:24:36;;;;;;;2.90;2.50;;;;;;;25.58;49.68;96708.34;5033567;28;20465;-73
2022/07/05 08:27:03;;;;;;;4.07;2.60;;;;;;;26.04;48.64;96728.38;5049603;28;20527;-72
2022/07/05 08:29:30;;;;;;;2.37;2.17;;;;;;;25.68;47.97;96737.19;5033536;28;20532;-73
2022/07/05 08:31:57;;;;;;;2.73;2.60;;;;;;;25.30;48.28;96729.34;5033315;28;20429;-73
2022/07/05 08:34:24;;;;;;;2.27;2.10;;;;;;;25.28;48.04;96682.97;5029827;28;20942;-72
2022/07/05 08:36:50;;;;;;;2.40;2.20;;;;;;;25.86;47.59;96743.06;5049024;28;20461;-72
2022/07/05 08:39:17;;;;;;;3.83;3.10;;;;;;;25.94;48.21;96727.44;5032994;28;20472;-72
2022/07/05 08:41:51;;;;;;;2.23;2.03;;;;;;;24.90;48.25;96703.31;5029797;28;20437;-72
2022/07/05 08:44:19;;;;;;;2.47;2.27;;;;;;;25.64;48.52;96722.94;5027387;28;20456;-73
2022/07/05 08:46:47;;;;;;;3.60;1.93;;;;;;;26.33;47.95;96732.06;5041276;28;20479;-72
2022/07/05 08:49:14;;;;;;;3.13;2.03;;;;;;;25.75;48.24;96722.75;5038517;28;20437;-73
2022/07/05 08:51:42;;;;;;;3.23;1.97;;;;;;;24.73;47.85;96724.06;5033375;28;20437;-73
2022/07/05 08:54:11;;;;;;;2.53;1.97;;;;;;;25.23;48.42;96718.63;5050943;28;20425;-73
2022/07/05 08:56:41;;;;;;;3.80;2.40;;;;;;;25.73;47.70;96728.59;5029592;28;20458;-73
2022/07/05 08:59:28;;;;;;;5.30;2.27;;;;;;;25.28;47.74;96699.22;5051875;28;20808;-72
2022/07/05 09:01:57;;;;;;;3.53;2.47;;;;;;;26.40;47.65;96723.03;5042358;28;20974;-72
2022/07/05 09:04:29;;;;;;;3.10;2.10;;;;;;;27.02;45.43;96727.44;5037490;28;20461;-73
2022/07/05 09:07:04;;;;;;;2.67;1.97;;;;;;;27.44;45.23;96719.41;5039174;28;20865;-73
2022/07/05 09:09:33;;;;;;;4.60;2.70;;;;;;;27.54;43.81;96723.81;5039099;28;20476;-73
2022/07/05 09:12:00;;;;;;;3.90;2.50;;;;;;;27.09;43.80;96723.78;5056995;28;20459;-73
2022/07/05 09:14:46;;;;;;;4.60;1.90;;;;;;;26.65;44.50;96725.19;5053561;28;20947;-73
2022/07/05 09:17:14;;;;;;;7.80;2.63;;;;;;;26.47;45.60;96720.16;5039366;28;20510;-73
2022/07/05 09:19:41;;;;;;;3.67;1.97;;;;;;;27.58;44.53;96723.72;5055862;28;20437;-73
2022/07/05 09:22:08;;;;;;;3.00;2.30;;;;;;;26.52;44.80;96692.53;5059053;28;20425;-72
2022/07/05 09:24:45;;;;;;;3.83;2.63;;;;;;;25.13;47.34;96713.41;5059181;28;20459;-72
2022/07/05 09:27:13;;;;;;;5.77;2.40;;;;;;;24.58;48.30;96677.53;5027981;28;20464;-72
2022/07/05 09:29:53;;;;;;;2.33;2.13;;;;;;;24.54;47.25;96711.19;5043924;28;20930;-72
2022/07/05 09:32:30;;;;;;;2.50;2.30;;;;;;;25.43;47.00;96707.09;5056816;28;20420;-72
2022/07/05 09:35:16;;;;;;;3.07;2.53;;;;;;;25.82;46.30;96679.28;5054400;28;20916;-72
2022/07/05 09:37:44;;;;;;;2.17;2.07;;;;;;;26.15;45.28;96718.84;5036198;28;20507;-72
2022/07/05 09:40:11;;;;;;;2.40;2.20;;;;;;;26.19;44.37;96684.31;5019351;28;20520;-72
2022/07/05 09:42:45;;;;;;;4.33;2.53;;;;;;;26.71;44.06;96691.72;5036278;28;20440;-73
2022/07/05 09:45:24;;;;;;;2.47;2.27;;;;;;;26.21;43.90;96717.19;5032366;28;20481;-72
2022/07/05 09:47:55;;;;;;;2.60;2.10;;;;;;;26.79;44.23;96716.72;5032342;28;20464;-73
2022/07/05 09:50:43;;;;;;;1.80;1.70;;;;;;;25.65;44.36;96708.22;5038877;28;20468;-73
2022/07/05 09:53:51;;;;;;;2.50;1.90;;;;;;;24.63;44.91;96716.84;5035985;28;20461;-72
2022/07/05 09:56:29;;;;;;;2.17;1.97;;;;;;;24.46;44.70;96680.78;5052658;28;20485;-72
2022/07/05 09:58:56;;;;;;;2.20;1.77;;;;;;;24.92;44.71;96682.00;5053819;28;20440;-72
2022/07/05 10:01:27;;;;;;;3.70;2.33;;;;;;;25.54;43.79;96719.25;5052320;28;20517;-73
2022/07/05 10:04:01;;;;;;;2.80;1.90;;;;;;;26.02;44.05;96715.25;5035485;28;20425;-73
2022/07/05 10:06:32;;;;;;;1.70;1.60;;;;;;;26.42;42.92;96723.34;5035746;28;20457;-74
2022/07/05 10:08:59;;;;;;;1.73;1.63;;;;;;;26.56;42.10;96717.63;5035659;28;20519;-73
2022/07/05 10:11:29;;;;;;;2.07;1.67;;;;;;;26.17;42.86;96719.19;5032073;28;20485;-74
2022/07/05 10:13:58;;;;;;;2.30;2.10;;;;;;;26.70;41.50;96719.25;5015845;28;20426;-73
2022/07/05 10:16:25;;;;;;;2.10;1.87;;;;;;;26.56;41.94;96695.16;5053067;28;20457;-73
2022/07/05 10:18:54;;;;;;;6.00;2.97;;;;;;;26.47;41.94;96720.16;5035359;28;20944;-73
2022/07/05 10:21:23;;;;;;;2.07;1.87;;;;;;;27.02;41.53;96716.59;5069320;28;20869;-72
2022/07/05 10:23:53;;;;;;;2.83;1.67;;;;;;;25.97;43.13;96696.03;5035106;28;20430;-73
2022/07/05 10:26:21;;;;;;;2.43;2.00;;;;;;;26.34;41.23;96721.97;5034916;28;20461;-73
2022/07/05 10:28:50;;;;;;;3.10;2.20;;;;;;;26.98;39.68;96705.03;5035195;28;20507;-73
2022/07/05 10:31:28;;;;;;;1.70;1.60;;;;;;;26.88;39.74;96706.03;5052784;28;20417;-73
2022/07/05 10:33:57;;;;;;;2.40;1.60;;;;;;;26.85;38.26;96703.44;5051220;28;20434;-72
2022/07/05 10:36:24;;;;;;;13.10;2.27;;;;;;;26.84;38.61;96715.44;5034464;28;20465;-72
2022/07/05 10:38:52;;;;;;;5.73;1.97;;;;;;;26.73;38.75;96724.63;5034544;28;20887;-72
2022/07/05 10:41:24;;;;;;;2.70;1.77;;;;;;;26.16;39.26;96725.03;5034869;28;20433;-72
2022/07/05 10:43:55;;;;;;;2.53;1.70;;;;;;;25.89;39.82;96701.56;5034707;28;20488;-73
2022/07/05 10:46:38;;;;;;;5.20;1.60;;;;;;;26.65;39.35;96711.63;5034153;28;20453;-73
2022/07/05 10:49:11;;;;;;;3.33;1.43;;;;;;;26.64;38.94;96721.72;5052466;28;20425;-73
2022/07/05 10:51:39;;;;;;;3.87;1.13;;;;;;;27.01;38.96;96692.59;5034631;28;20425;-72
2022/07/05 10:54:06;;;;;;;2.13;1.43;;;;;;;27.22;37.88;96708.34;5034360;28;20433;-72
2022/07/05 10:56:32;;;;;;;1.50;1.30;;;;;;;27.76;36.54;96701.53;5034254;28;21056;-73
2022/07/05 10:59:09;;;;;;;3.20;1.87;;;;;;;26.81;37.34;96715.09;5052370;28;20536;-74
2022/07/05 11:01:37;;;;;;;2.03;1.70;;;;;;;26.71;37.53;96708.00;5017798;28;20441;-73
2022/07/05 11:04:05;;;;;;;2.20;1.27;;;;;;;25.52;40.05;96691.06;5052177;28;20422;-72
2022/07/05 11:06:38;;;;;;;6.40;1.70;;;;;;;25.76;38.80;96710.75;5033919;28;20832;-72
2022/07/05 11:09:11;;;;;;;1.40;1.30;;;;;;;25.69;38.16;96702.75;5034138;28;21008;-73
2022/07/05 11:12:06;;;;;;;1.63;1.40;;;;;;;25.71;38.06;96676.78;5052230;28;20421;-72
2022/07/05 11:14:53;;;;;;;3.13;1.60;;;;;;;27.32;36.73;96709.25;5050717;28;20440;-72
2022/07/05 11:17:25;;;;;;;2.20;1.33;;;;;;;27.72;36.46;96709.78;5034137;28;20568;-73
2022/07/05 11:20:21;;;;;;;3.53;1.30;;;;;;;27.61;35.06;96712.00;5037207;28;20528;-72
2022/07/05 11:23:02;;;;;;;1.60;1.50;;;;;;;26.91;36.51;96696.28;5017696;28;20457;-73
2022/07/05 11:25:34;;;;;;;1.87;1.40;;;;;;;26.79;35.89;96679.50;5033517;28;20461;-73
2022/07/05 11:28:06;;;;;;;1.83;1.40;;;;;;;27.22;36.45;96708.34;5050232;28;20465;-73
2022/07/05 11:30:46;;;;;;;6.97;1.40;;;;;;;27.81;35.28;96701.78;5050547;28;20438;-73
2022/07/05 11:33:39;;;;;;;2.23;1.37;;;;;;;28.29;34.95;96702.75;5051486;28;20426;-73
2022/07/05 11:36:20;;;;;;;2.20;1.40;;;;;;;27.82;35.02;96705.25;5011370;28;20437;-73
2022/07/05 11:39:07;;;;;;;3.17;1.00;;;;;;;26.06;37.19;96699.69;5039082;28;20457;-73
2022/07/05 11:41:46;;;;;;;1.33;1.23;;;;;;;25.55;35.97;96692.94;5050782;28;20473;-73
2022/07/05 11:44:14;;;;;;;1.67;1.20;;;;;;;25.67;37.11;96697.75;5066888;28;20445;-73
2022/07/05 11:46:42;;;;;;;2.03;1.17;;;;;;;25.53;37.47;96695.28;5066847;28;20458;-73
2022/07/05 11:49:22;;;;;;;1.80;1.27;;;;;;;25.64;37.54;96671.47;5034771;28;20836;-73
2022/07/05 11:52:00;;;;;;;2.70;1.53;;;;;;;27.06;35.58;96692.81;5067170;28;20433;-73